createdAt,value
2022-11-14T00:03:02.378Z,-11010.28
2022-11-14T00:06:09.917Z,-11010.84
2022-11-14T00:09:16.553Z,-11013.66
2022-11-14T00:12:24.166Z,-11010.00
2022-11-14T00:15:30.982Z,-11006.22
2022-11-14T00:18:37.221Z,-10971.88
2022-11-14T00:21:43.287Z,-10956.16
2022-11-14T00:24:49.651Z,-10977.91
2022-11-14T00:27:59.849Z,-10978.88
2022-11-14T00:31:06.450Z,-10962.34
2022-11-14T00:34:12.785Z,-10984.63
2022-11-14T00:37:19.046Z,-10988.13
2022-11-14T00:40:25.281Z,-10998.78
2022-11-14T00:43:32.712Z,-10984.19
2022-11-14T00:46:39.753Z,-10982.38
2022-11-14T00:49:45.586Z,-10982.25
2022-11-14T00:52:51.658Z,-10979.56
2022-11-14T00:55:57.688Z,-10963.19
2022-11-14T00:59:05.594Z,-10994.00
2022-11-14T01:02:11.762Z,-10993.44
2022-11-14T01:05:18.140Z,-11004.81
2022-11-14T01:08:24.349Z,-10993.03
2022-11-14T01:11:30.620Z,-10996.81
2022-11-14T01:14:38.405Z,-10992.91
2022-11-14T01:17:44.848Z,-10989.25
2022-11-14T01:20:51.299Z,-10986.88
2022-11-14T01:23:57.891Z,-10982.50
2022-11-14T01:27:04.086Z,-10977.63
2022-11-14T01:30:12.473Z,-10979.72
2022-11-14T01:33:18.879Z,-10967.66
2022-11-14T01:36:25.213Z,-10977.63
2022-11-14T01:39:31.624Z,-10975.09
2022-11-14T01:42:38.022Z,-10979.28
2022-11-14T01:45:56.052Z,-10994.56
2022-11-14T01:49:06.516Z,-10990.78
2022-11-14T01:52:16.561Z,-10995.97
2022-11-14T01:55:22.741Z,-10993.44
2022-11-14T01:58:31.004Z,-10995.84
2022-11-14T02:01:45.900Z,-10999.34
2022-11-14T02:04:57.207Z,-10983.78
2022-11-14T02:08:03.562Z,-10993.88
2022-11-14T02:11:11.967Z,-10987.00
2022-11-14T02:14:18.584Z,-10968.50
2022-11-14T02:17:30.628Z,-10956.44
2022-11-14T02:20:43.326Z,-10965.69
2022-11-14T02:23:49.527Z,-10959.81
2022-11-14T02:26:55.657Z,-10950.72
2022-11-14T02:30:05.733Z,-10969.63
2022-11-14T02:33:12.040Z,-10988.13
2022-11-14T02:36:19.610Z,-10985.19
2022-11-14T02:39:26.383Z,-10979.84
2022-11-14T02:42:32.767Z,-10966.81
2022-11-14T02:45:38.737Z,-10965.56
2022-11-14T02:48:44.745Z,-10983.06
2022-11-14T02:51:52.696Z,-10977.06
2022-11-14T02:54:59.153Z,-10973.69
2022-11-14T02:58:05.442Z,-10964.59
2022-11-14T03:01:20.682Z,-10954.91
2022-11-14T03:04:27.606Z,-10968.09
2022-11-14T03:07:35.226Z,-10972.00
2022-11-14T03:10:41.693Z,-10971.31
2022-11-14T03:13:47.675Z,-10959.41
2022-11-14T03:16:56.520Z,-10957.72
2022-11-14T03:20:03.125Z,-10953.38
2022-11-14T03:23:10.798Z,-10959.53
2022-11-14T03:26:17.523Z,-10987.84
2022-11-14T03:29:23.811Z,-10995.41
2022-11-14T03:32:29.971Z,-10962.63
2022-11-14T03:35:36.348Z,-10980.56
2022-11-14T03:38:44.690Z,-10993.44
2022-11-14T03:41:51.146Z,-10965.41
2022-11-14T03:44:57.158Z,-10959.25
2022-11-14T03:48:03.457Z,-10958.97
2022-11-14T03:51:09.750Z,-10965.41
2022-11-14T03:54:17.497Z,-10957.84
2022-11-14T03:57:23.973Z,-10966.25
2022-11-14T04:00:30.510Z,-10970.75
2022-11-14T04:03:36.993Z,-10982.25
2022-11-14T04:06:43.152Z,-10962.75
2022-11-14T04:09:52.102Z,-10967.66
2022-11-14T04:12:58.613Z,-10959.53
2022-11-14T04:16:05.284Z,-10962.91
2022-11-14T04:19:11.675Z,-10956.44
2022-11-14T04:22:17.899Z,-10965.00
2022-11-14T04:25:25.626Z,-10957.44
2022-11-14T04:28:32.012Z,-10971.03
2022-11-14T04:31:38.605Z,-10959.53
2022-11-14T04:34:44.515Z,-10966.53
2022-11-14T04:37:50.710Z,-10965.16
2022-11-14T04:40:58.104Z,-10951.69
2022-11-14T04:44:04.584Z,-10959.53
2022-11-14T04:47:10.614Z,-10946.50
2022-11-14T04:50:17.252Z,-10941.31
2022-11-14T04:53:23.897Z,-10962.06
2022-11-14T04:56:31.460Z,-10953.78
2022-11-14T04:59:38.021Z,-10955.63
2022-11-14T05:02:44.194Z,-10937.53
2022-11-14T05:05:50.518Z,-10952.38
2022-11-14T05:08:56.624Z,-10961.06
2022-11-14T05:12:04.331Z,-10950.44
2022-11-14T05:15:11.647Z,-10952.09
2022-11-14T05:18:18.157Z,-10962.19
2022-11-14T05:21:24.331Z,-10945.25
2022-11-14T05:24:30.663Z,-10957.56
2022-11-14T05:27:38.334Z,-10965.41
2022-11-14T05:30:44.529Z,-10967.94
2022-11-14T05:33:51.654Z,-10965.56
2022-11-14T05:36:57.785Z,-10958.56
2022-11-14T05:40:05.059Z,-10976.34
2022-11-14T05:43:12.901Z,-10986.03
2022-11-14T05:46:19.306Z,-10973.56
2022-11-14T05:49:25.764Z,-10991.91
2022-11-14T05:52:33.198Z,-10966.69
2022-11-14T05:55:39.509Z,-10950.84
2022-11-14T05:58:47.184Z,-10977.63
2022-11-14T06:01:53.432Z,-10977.19
2022-11-14T06:04:59.842Z,-10952.94
2022-11-14T06:08:06.438Z,-10945.53
2022-11-14T06:11:15.333Z,-10952.09
2022-11-14T06:14:23.466Z,-10956.03
2022-11-14T06:17:30.159Z,-10952.38
2022-11-14T06:20:37.358Z,-10953.38
2022-11-14T06:23:44.034Z,-10970.19
2022-11-14T06:26:50.470Z,-10983.22
2022-11-14T06:29:58.438Z,-10989.09
2022-11-14T06:33:04.426Z,-10991.50
2022-11-14T06:36:11.418Z,-10968.63
2022-11-14T06:39:17.928Z,-10970.19
2022-11-14T06:42:24.172Z,-10989.66
2022-11-14T06:45:31.630Z,-10991.78
2022-11-14T06:48:38.021Z,-10963.75
2022-11-14T06:51:43.977Z,-10967.09
2022-11-14T06:54:50.175Z,-10961.91
2022-11-14T06:57:56.486Z,-10967.09
2022-11-14T07:01:11.898Z,-10970.47
2022-11-14T07:04:18.219Z,-10974.94
2022-11-14T07:07:24.516Z,-10994.56
2022-11-14T07:10:32.914Z,-11004.38
2022-11-14T07:13:40.108Z,-11010.00
2022-11-14T07:16:48.211Z,-11021.50
2022-11-14T07:19:54.459Z,-11011.41
2022-11-14T07:23:00.906Z,-11037.50
2022-11-14T07:26:08.677Z,-11050.81
2022-11-14T07:29:14.786Z,-11018.41
2022-11-14T07:32:22.209Z,-11037.34
2022-11-14T07:35:28.485Z,-11042.97
2022-11-14T07:38:35.639Z,-11054.59
2022-11-14T07:41:42.154Z,-11076.50
2022-11-14T07:44:48.391Z,-11079.88
2022-11-14T07:47:58.305Z,-11067.50
2022-11-14T07:51:07.050Z,-11054.19
2022-11-14T07:54:13.349Z,-11061.75
2022-11-14T07:57:19.825Z,-11070.31
2022-11-14T08:00:25.878Z,-11063.72
2022-11-14T08:03:33.359Z,-11070.19
2022-11-14T08:06:39.692Z,-11079.59
2022-11-14T08:09:45.931Z,-11083.78
2022-11-14T08:13:29.813Z,-11096.28
2022-11-14T08:16:26.633Z,-11087.16
2022-11-14T08:19:34.441Z,-11111.75
2022-11-14T08:22:40.772Z,-11097.13
2022-11-14T08:25:46.847Z,-11101.22
2022-11-14T08:28:54.587Z,-11104.44
2022-11-14T08:32:00.595Z,-11133.94
2022-11-14T08:35:08.974Z,-11135.06
2022-11-14T08:38:15.048Z,-11151.78
2022-11-14T08:41:22.586Z,-11157.13
2022-11-14T08:44:28.663Z,-11158.25
2022-11-14T08:47:35.255Z,-11160.22
2022-11-14T08:50:43.091Z,-11184.25
2022-11-14T08:53:49.370Z,-11185.09
2022-11-14T08:56:55.721Z,-11191.41
2022-11-14T09:00:02.007Z,-11194.66
2022-11-14T09:03:09.619Z,-11207.59
2022-11-14T09:06:17.109Z,-11222.78
2022-11-14T09:09:23.521Z,-11204.63
2022-11-14T09:12:29.845Z,-11218.28
2022-11-14T09:15:36.035Z,-11202.94
2022-11-14T09:18:42.618Z,-11224.31
2022-11-14T09:21:50.390Z,-11231.22
2022-11-14T09:24:56.915Z,-11246.13
2022-11-14T09:28:06.781Z,-11239.38
2022-11-14T09:31:14.566Z,-11245.44
2022-11-14T09:34:20.794Z,-11254.56
2022-11-14T09:37:28.421Z,-11254.16
2022-11-14T09:40:49.278Z,-11259.50
2022-11-14T09:44:22.988Z,-11262.59
2022-11-14T09:47:31.944Z,-11265.13
2022-11-14T09:50:43.900Z,-11259.22
2022-11-14T09:53:58.640Z,-11290.47
2022-11-14T09:57:04.974Z,-11284.00
2022-11-14T10:00:16.132Z,-11279.75
2022-11-14T10:03:28.830Z,-11286.22
2022-11-14T10:06:42.037Z,-11290.47
2022-11-14T10:10:04.577Z,-11294.13
2022-11-14T10:13:22.508Z,-11296.50
2022-11-14T10:16:40.546Z,-11303.97
2022-11-14T10:19:52.992Z,-11301.72
2022-11-14T10:23:26.869Z,-11321.44
2022-11-14T10:26:40.485Z,-11322.41
2022-11-14T10:30:06.684Z,-11342.28
2022-11-14T10:33:24.356Z,-11337.22
2022-11-14T10:36:47.521Z,-11325.66
2022-11-14T10:39:55.937Z,-11332.69
2022-11-14T10:43:12.328Z,-11327.63
2022-11-14T10:46:22.186Z,-11338.06
2022-11-14T10:49:32.528Z,-11334.09
2022-11-14T10:52:43.849Z,-11349.88
2022-11-14T10:56:07.936Z,-11349.59
2022-11-14T10:59:15.980Z,-11359.75
2022-11-14T11:02:22.356Z,-11340.72
2022-11-14T11:05:31.910Z,-11355.78
2022-11-14T11:09:00.935Z,-11357.78
2022-11-14T11:12:09.856Z,-11382.84
2022-11-14T11:15:20.960Z,-11383.00
2022-11-14T11:18:30.361Z,-11381.72
2022-11-14T11:21:49.290Z,-11383.41
2022-11-14T11:24:55.447Z,-11382.16
2022-11-14T11:28:08.120Z,-11386.22
2022-11-14T11:31:15.896Z,-11389.34
2022-11-14T11:34:26.479Z,-11394.81
2022-11-14T11:37:37.041Z,-11397.78
2022-11-14T11:40:45.472Z,-11396.38
2022-11-14T11:43:58.493Z,-11401.44
2022-11-14T11:47:12.396Z,-11391.72
2022-11-14T11:50:21.705Z,-11393.84
2022-11-14T11:53:35.786Z,-11413.84
2022-11-14T11:56:45.435Z,-11419.78
2022-11-14T12:00:00.629Z,-11417.09
2022-11-14T12:03:13.788Z,-11426.41
2022-11-14T12:06:25.007Z,-11437.25
2022-11-14T12:10:08.826Z,-11397.94
2022-11-14T12:13:34.190Z,-11417.22
2022-11-14T12:17:09.772Z,-11422.59
2022-11-14T12:20:45.589Z,-11424.56
2022-11-14T12:24:11.042Z,-11420.91
2022-11-14T12:27:32.017Z,-11452.75
2022-11-14T12:30:40.840Z,-11445.84
2022-11-14T12:33:54.628Z,-11436.41
2022-11-14T12:37:01.360Z,-11448.53
2022-11-14T12:40:20.086Z,-11446.69
2022-11-14T12:43:36.700Z,-11455.44
2022-11-14T12:47:13.521Z,-11447.41
2022-11-14T12:50:35.309Z,-11457.84
2022-11-14T12:53:43.518Z,-11453.63
2022-11-14T12:57:10.337Z,-11450.50
2022-11-14T13:00:19.399Z,-11461.09
2022-11-14T13:03:39.841Z,-11453.03
2022-11-14T13:06:59.520Z,-11458.41
2022-11-14T13:10:15.645Z,-11466.31
2022-11-14T13:13:41.919Z,-11443.19
2022-11-14T13:17:06.606Z,-11448.53
2022-11-14T13:20:46.843Z,-11452.34
2022-11-14T13:23:57.355Z,-11442.91
2022-11-14T13:27:45.224Z,-11438.09
2022-11-14T13:31:20.602Z,-11405.13
2022-11-14T13:34:37.835Z,-11400.19
2022-11-14T13:38:16.410Z,-11397.50
2022-11-14T13:41:47.416Z,-11379.75
2022-11-14T13:45:27.445Z,-11373.28
2022-11-14T13:48:58.296Z,-11366.78
2022-11-14T13:52:05.732Z,-11361.44
2022-11-14T13:55:21.474Z,-11347.78
2022-11-14T13:58:48.947Z,-11334.94
2022-11-14T14:02:17.602Z,-11332.00
2022-11-14T14:05:37.736Z,-11330.44
2022-11-14T14:09:04.601Z,-11316.66
2022-11-14T14:12:34.929Z,-11303.84
2022-11-14T14:15:48.287Z,-11299.19
2022-11-14T14:19:04.749Z,-11295.53
2022-11-14T14:22:20.608Z,-11285.25
2022-11-14T14:25:35.608Z,-11267.38
2022-11-14T14:28:53.473Z,-11271.88
2022-11-14T14:32:08.432Z,-11278.78
2022-11-14T14:35:25.893Z,-11268.38
2022-11-14T14:38:35.826Z,-11264.16
2022-11-14T14:41:42.817Z,-11268.50
2022-11-14T14:44:50.058Z,-11264.56
2022-11-14T14:48:03.345Z,-11259.06
2022-11-14T14:51:15.560Z,-11257.25
2022-11-14T14:54:25.989Z,-11247.81
2022-11-14T14:57:32.561Z,-11253.03
2022-11-14T15:00:39.359Z,-11248.09
2022-11-14T15:03:50.963Z,-11246.28
2022-11-14T15:06:58.540Z,-11240.34
2022-11-14T15:10:09.056Z,-11229.94
2022-11-14T15:13:19.053Z,-11216.72
2022-11-14T15:16:26.606Z,-11205.34
2022-11-14T15:19:40.245Z,-11201.97
2022-11-14T15:23:03.602Z,-11202.94
2022-11-14T15:26:17.633Z,-11199.00
2022-11-14T15:29:25.329Z,-11197.75
2022-11-14T15:32:31.476Z,-11191.69
2022-11-14T15:35:39.276Z,-11185.78
2022-11-14T15:39:11.821Z,-11182.97
2022-11-14T15:42:29.895Z,-11180.03
2022-11-14T15:45:41.651Z,-11187.47
2022-11-14T15:48:48.465Z,-11173.28
2022-11-14T15:51:57.693Z,-11171.19
2022-11-14T15:55:05.003Z,-11145.59
2022-11-14T15:58:27.746Z,-11152.91
2022-11-14T16:01:34.958Z,-11147.41
2022-11-14T16:04:47.249Z,-11148.69
2022-11-14T16:07:54.179Z,-11156.28
2022-11-14T16:11:00.443Z,-11154.03
2022-11-14T16:14:07.955Z,-11154.59
2022-11-14T16:17:16.024Z,-11152.91
2022-11-14T16:20:23.731Z,-11151.34
2022-11-14T16:23:30.279Z,-11141.94
2022-11-14T16:26:38.184Z,-11147.13
2022-11-14T16:29:45.985Z,-11144.06
2022-11-14T16:32:53.413Z,-11137.31
2022-11-14T16:36:00.348Z,-11130.69
2022-11-14T16:39:11.453Z,-11134.06
2022-11-14T16:42:17.933Z,-11132.09
2022-11-14T16:45:26.659Z,-11130.13
2022-11-14T16:48:32.721Z,-11124.81
2022-11-14T16:51:47.644Z,-11122.28
2022-11-14T16:54:55.170Z,-11122.84
2022-11-14T16:58:01.466Z,-11119.03
2022-11-14T17:01:18.651Z,-11125.38
2022-11-14T17:04:27.195Z,-11106.69
2022-11-14T17:07:33.857Z,-11095.44
2022-11-14T17:10:43.331Z,-11111.31
2022-11-14T17:13:49.816Z,-11109.63
2022-11-14T17:17:04.945Z,-11102.34
2022-11-14T17:20:12.120Z,-11095.31
2022-11-14T17:23:18.233Z,-11094.31
2022-11-14T17:26:25.051Z,-11092.09
2022-11-14T17:29:31.666Z,-11094.75
2022-11-14T17:32:39.291Z,-11091.09
2022-11-14T17:35:45.724Z,-11098.41
2022-11-14T17:38:52.198Z,-11100.78
2022-11-14T17:41:58.308Z,-11101.78
2022-11-14T17:45:04.357Z,-11090.81
2022-11-14T17:48:13.987Z,-11094.75
2022-11-14T17:51:20.459Z,-11084.63
2022-11-14T17:54:26.363Z,-11070.59
2022-11-14T17:57:32.386Z,-11076.78
2022-11-14T18:00:38.844Z,-11066.94
2022-11-14T18:03:46.404Z,-11075.38
2022-11-14T18:06:52.740Z,-11077.19
2022-11-14T18:09:59.145Z,-11072.00
2022-11-14T18:13:05.749Z,-11081.97
2022-11-14T18:16:14.225Z,-11079.03
2022-11-14T18:19:21.860Z,-11083.09
2022-11-14T18:22:28.556Z,-11082.69
2022-11-14T18:25:34.894Z,-11065.13
2022-11-14T18:28:41.837Z,-11066.25
2022-11-14T18:31:48.469Z,-11044.66
2022-11-14T18:34:56.469Z,-11043.66
2022-11-14T18:38:02.646Z,-11041.69
2022-11-14T18:41:10.682Z,-11064.44
2022-11-14T18:44:17.193Z,-11066.53
2022-11-14T18:47:35.491Z,-11066.66
2022-11-14T18:50:43.458Z,-11054.03
2022-11-14T18:53:51.112Z,-11059.09
2022-11-14T18:56:58.570Z,-11058.25
2022-11-14T19:00:05.438Z,-11052.06
2022-11-14T19:03:25.356Z,-11042.81
2022-11-14T19:06:34.848Z,-11047.59
2022-11-14T19:09:41.014Z,-11054.31
2022-11-14T19:12:49.023Z,-11053.47
2022-11-14T19:15:55.141Z,-11046.31
2022-11-14T19:19:02.085Z,-11045.91
2022-11-14T19:22:09.696Z,-11044.09
2022-11-14T19:25:16.036Z,-11038.19
2022-11-14T19:28:25.875Z,-11052.91
2022-11-14T19:31:33.261Z,-11043.25
2022-11-14T19:34:39.349Z,-11044.38
2022-11-14T19:37:47.067Z,-11038.34
2022-11-14T19:40:53.136Z,-11045.63
2022-11-14T19:44:00.867Z,-11046.03
2022-11-14T19:47:07.134Z,-11029.91
2022-11-14T19:50:13.420Z,-11045.50
2022-11-14T19:53:21.138Z,-11029.06
2022-11-14T19:56:28.410Z,-11036.22
2022-11-14T19:59:34.923Z,-11034.81
2022-11-14T20:02:41.307Z,-11021.63
2022-11-14T20:05:47.682Z,-11029.06
2022-11-14T20:08:55.688Z,-11016.59
2022-11-14T20:12:03.073Z,-11016.16
2022-11-14T20:15:11.114Z,-11035.25
2022-11-14T20:18:17.997Z,-11034.97
2022-11-14T20:21:25.999Z,-11037.50
2022-11-14T20:24:33.937Z,-11029.22
2022-11-14T20:27:40.282Z,-11027.25
2022-11-14T20:30:46.962Z,-11032.44
2022-11-14T20:33:54.743Z,-11012.09
2022-11-14T20:37:16.428Z,-11017.16
2022-11-14T20:40:24.197Z,-11014.75
2022-11-14T20:43:31.104Z,-11003.53
2022-11-14T20:46:37.391Z,-11013.66
2022-11-14T20:49:44.432Z,-11003.25
2022-11-14T20:52:50.783Z,-11005.22
2022-11-14T20:55:58.248Z,-11002.72
2022-11-14T20:59:06.427Z,-11007.47
2022-11-14T21:02:14.638Z,-11014.47
2022-11-14T21:05:20.826Z,-11013.38
2022-11-14T21:08:27.276Z,-11001.88
2022-11-14T21:11:34.862Z,-10994.28
2022-11-14T21:14:41.222Z,-10996.81
2022-11-14T21:17:47.499Z,-11002.16
2022-11-14T21:21:00.105Z,-11004.66
2022-11-14T21:24:07.388Z,-10993.44
2022-11-14T21:27:14.969Z,-11003.81
2022-11-14T21:30:21.066Z,-11018.13
2022-11-14T21:33:27.472Z,-11009.56
2022-11-14T21:36:49.156Z,-11008.47
2022-11-14T21:39:55.525Z,-11016.88
2022-11-14T21:43:03.126Z,-11009.28
2022-11-14T21:46:10.742Z,-11014.19
2022-11-14T21:49:17.576Z,-10991.78
2022-11-14T21:52:24.196Z,-10980.28
2022-11-14T21:55:30.301Z,-10988.53
2022-11-14T21:58:38.253Z,-10981.25
2022-11-14T22:02:04.535Z,-10995.28
2022-11-14T22:05:10.880Z,-10999.47
2022-11-14T22:08:17.171Z,-11002.97
2022-11-14T22:11:23.751Z,-11001.16
2022-11-14T22:14:31.545Z,-10993.44
2022-11-14T22:17:37.744Z,-10991.22
2022-11-14T22:20:44.448Z,-10983.91
2022-11-14T22:23:54.043Z,-10983.06
2022-11-14T22:27:00.238Z,-10990.22
2022-11-14T22:30:08.909Z,-10971.59
2022-11-14T22:33:15.342Z,-10962.19
2022-11-14T22:36:23.741Z,-10978.03
2022-11-14T22:39:30.147Z,-10980.69
2022-11-14T22:42:36.770Z,-10980.56
2022-11-14T22:45:44.255Z,-10981.81
2022-11-14T22:48:51.312Z,-10986.59
2022-11-14T22:51:57.443Z,-10995.84
2022-11-14T22:55:03.988Z,-11000.88
2022-11-14T22:58:10.145Z,-10996.25
2022-11-14T23:01:21.463Z,-10991.78
2022-11-14T23:04:27.600Z,-10979.72
2022-11-14T23:07:33.700Z,-10988.41
2022-11-14T23:10:40.023Z,-10994.00
2022-11-14T23:13:47.632Z,-10995.41
2022-11-14T23:16:55.117Z,-10997.66
2022-11-14T23:20:01.536Z,-10999.19
2022-11-14T23:23:07.891Z,-11001.88
2022-11-14T23:26:16.277Z,-10998.91
2022-11-14T23:29:22.801Z,-10988.53
2022-11-14T23:32:30.491Z,-10979.44
2022-11-14T23:35:36.844Z,-10968.38
2022-11-14T23:38:43.257Z,-10965.28
2022-11-14T23:41:49.312Z,-10962.75
2022-11-14T23:44:55.357Z,-10962.91
2022-11-14T23:48:03.324Z,-10953.09
2022-11-14T23:51:10.169Z,-10961.22
2022-11-14T23:54:16.653Z,-10960.38
2022-11-14T23:57:22.740Z,-10987.00
